createdAt,value
2022-09-10T00:01:34.911Z,1.03
2022-09-10T00:04:03.812Z,1.40
2022-09-10T00:06:33.146Z,1.00
2022-09-10T00:09:02.416Z,1.97
2022-09-10T00:11:31.140Z,2.13
2022-09-10T00:14:03.635Z,3.00
2022-09-10T00:16:33.547Z,1.63
2022-09-10T00:19:02.255Z,1.40
2022-09-10T00:21:31.305Z,1.00
2022-09-10T00:23:59.777Z,1.43
2022-09-10T00:26:29.865Z,0.97
2022-09-10T00:29:00.059Z,2.53
2022-09-10T00:31:31.706Z,0.90
2022-09-10T00:34:02.570Z,2.20
2022-09-10T00:36:33.941Z,2.87
2022-09-10T00:39:03.639Z,0.90
2022-09-10T00:41:34.127Z,2.07
2022-09-10T00:44:03.713Z,1.13
2022-09-10T00:46:36.329Z,3.43
2022-09-10T00:49:11.402Z,2.27
2022-09-10T00:51:40.549Z,0.70
2022-09-10T00:54:09.096Z,1.23
2022-09-10T00:56:37.090Z,0.50
2022-09-10T00:59:06.206Z,1.40
2022-09-10T01:01:35.154Z,2.40
2022-09-10T01:04:06.147Z,0.70
2022-09-10T01:06:34.451Z,3.33
2022-09-10T01:09:03.057Z,0.70
2022-09-10T01:11:38.935Z,1.20
2022-09-10T01:14:22.205Z,1.60
2022-09-10T01:16:56.303Z,1.70
2022-09-10T01:19:48.564Z,0.97
2022-09-10T01:22:26.673Z,1.87
2022-09-10T01:24:58.263Z,2.90
2022-09-10T01:27:33.108Z,2.27
2022-09-10T01:30:06.117Z,2.83
2022-09-10T01:32:40.943Z,2.73
2022-09-10T01:35:15.740Z,2.03
2022-09-10T01:37:46.829Z,1.00
2022-09-10T01:40:17.136Z,0.80
2022-09-10T01:42:46.886Z,3.33
2022-09-10T01:45:16.619Z,1.07
2022-09-10T01:47:56.855Z,2.17
2022-09-10T01:50:30.167Z,1.83
2022-09-10T01:53:09.363Z,1.50
2022-09-10T01:55:44.518Z,1.17
2022-09-10T01:58:21.193Z,2.13
2022-09-10T02:00:59.098Z,1.67
2022-09-10T02:03:27.940Z,3.20
2022-09-10T02:05:57.673Z,3.00
2022-09-10T02:08:31.108Z,3.83
2022-09-10T02:11:00.836Z,1.57
2022-09-10T02:13:31.174Z,1.07
2022-09-10T02:15:59.670Z,1.00
2022-09-10T02:18:27.778Z,2.07
2022-09-10T02:20:57.947Z,0.80
2022-09-10T02:23:31.578Z,1.10
2022-09-10T02:25:59.716Z,1.20
2022-09-10T02:28:27.841Z,1.23
2022-09-10T02:30:57.218Z,1.93
2022-09-10T02:33:25.303Z,1.57
2022-09-10T02:35:54.019Z,1.50
2022-09-10T02:38:22.435Z,3.23
2022-09-10T02:40:50.474Z,1.27
2022-09-10T02:43:19.152Z,1.40
2022-09-10T02:45:47.191Z,1.93
2022-09-10T02:48:18.300Z,1.67
2022-09-10T02:50:46.538Z,3.60
2022-09-10T02:53:14.858Z,2.53
2022-09-10T02:55:46.240Z,1.60
2022-09-10T02:58:14.575Z,2.23
2022-09-10T03:00:42.779Z,1.87
2022-09-10T03:03:10.887Z,3.07
2022-09-10T03:05:41.667Z,1.50
2022-09-10T03:08:10.681Z,2.37
2022-09-10T03:10:39.514Z,1.47
2022-09-10T03:13:08.166Z,2.00
2022-09-10T03:15:36.095Z,6.07
2022-09-10T03:18:04.266Z,2.57
2022-09-10T03:20:32.926Z,1.30
2022-09-10T03:23:03.478Z,4.27
2022-09-10T03:25:31.573Z,5.67
2022-09-10T03:27:59.847Z,2.63
2022-09-10T03:30:27.800Z,2.17
2022-09-10T03:32:56.239Z,2.03
2022-09-10T03:35:24.216Z,2.37
2022-09-10T03:37:52.198Z,2.30
2022-09-10T03:40:21.604Z,2.70
2022-09-10T03:42:49.575Z,2.70
2022-09-10T03:45:17.606Z,2.30
2022-09-10T03:47:45.796Z,1.47
2022-09-10T03:50:13.768Z,6.17
2022-09-10T03:52:42.398Z,2.70
2022-09-10T03:55:11.305Z,7.00
2022-09-10T03:57:41.732Z,2.80
2022-09-10T04:00:11.941Z,1.87
2022-09-10T04:02:41.691Z,3.60
2022-09-10T04:05:10.195Z,2.73
2022-09-10T04:07:38.268Z,4.50
2022-09-10T04:10:08.060Z,3.83
2022-09-10T04:12:37.869Z,2.33
2022-09-10T04:15:09.560Z,2.30
2022-09-10T04:17:37.697Z,3.33
2022-09-10T04:20:06.473Z,3.23
2022-09-10T04:22:35.184Z,1.30
2022-09-10T04:25:03.215Z,1.53
2022-09-10T04:27:31.145Z,2.93
2022-09-10T04:29:59.156Z,3.90
2022-09-10T04:32:28.493Z,1.20
2022-09-10T04:34:56.560Z,3.50
2022-09-10T04:37:24.634Z,3.10
2022-09-10T04:39:52.953Z,6.33
2022-09-10T04:42:21.121Z,2.03
2022-09-10T04:44:49.168Z,4.10
2022-09-10T04:47:18.194Z,1.50
2022-09-10T04:49:47.565Z,2.20
2022-09-10T04:52:17.164Z,2.80
2022-09-10T04:54:45.493Z,1.60
2022-09-10T04:57:13.655Z,3.90
2022-09-10T04:59:41.644Z,1.33
2022-09-10T05:02:10.543Z,3.03
2022-09-10T05:04:39.574Z,3.57
2022-09-10T05:07:08.925Z,3.50
2022-09-10T05:09:36.876Z,1.40
2022-09-10T05:12:05.514Z,2.57
2022-09-10T05:14:33.927Z,1.10
2022-09-10T05:17:02.400Z,1.03
2022-09-10T05:19:30.450Z,0.93
2022-09-10T05:21:58.771Z,3.30
2022-09-10T05:24:28.500Z,1.10
2022-09-10T05:26:57.061Z,1.30
2022-09-10T05:29:24.963Z,1.90
2022-09-10T05:31:52.927Z,1.50
2022-09-10T05:34:21.272Z,1.37
2022-09-10T05:36:49.375Z,1.87
2022-09-10T05:39:17.629Z,2.67
2022-09-10T05:41:46.984Z,1.10
2022-09-10T05:44:15.239Z,1.20
2022-09-10T05:46:43.206Z,1.53
2022-09-10T05:49:14.192Z,1.33
2022-09-10T05:51:42.160Z,1.90
2022-09-10T05:54:11.602Z,1.47
2022-09-10T05:56:40.336Z,1.13
2022-09-10T05:59:10.669Z,3.43
2022-09-10T06:01:39.097Z,0.90
2022-09-10T06:04:07.322Z,1.20
2022-09-10T06:06:35.340Z,3.20
2022-09-10T06:09:03.484Z,4.00
2022-09-10T06:11:31.433Z,4.50
2022-09-10T06:13:59.360Z,5.00
2022-09-10T06:16:28.809Z,4.37
2022-09-10T06:18:57.399Z,4.37
2022-09-10T06:21:28.333Z,2.73
2022-09-10T06:23:56.606Z,4.07
2022-09-10T06:26:25.570Z,4.57
2022-09-10T06:28:55.289Z,1.90
2022-09-10T06:31:23.509Z,4.10
2022-09-10T06:33:53.145Z,3.10
2022-09-10T06:36:21.092Z,5.30
2022-09-10T06:38:49.543Z,6.57
2022-09-10T06:41:17.533Z,5.30
2022-09-10T06:43:46.791Z,2.83
2022-09-10T06:46:50.802Z,8.03
2022-09-10T06:49:07.258Z,2.67
2022-09-10T06:51:35.206Z,4.77
2022-09-10T06:54:03.291Z,6.80
2022-09-10T06:56:31.319Z,3.63
2022-09-10T06:59:02.185Z,3.97
2022-09-10T07:01:32.068Z,4.33
2022-09-10T07:04:01.104Z,3.90
2022-09-10T07:06:33.750Z,4.00
2022-09-10T07:09:01.749Z,4.00
2022-09-10T07:11:32.244Z,1.87
2022-09-10T07:14:01.544Z,4.43
2022-09-10T07:16:30.163Z,4.77
2022-09-10T07:18:59.683Z,1.90
2022-09-10T07:21:29.009Z,3.20
2022-09-10T07:24:01.366Z,5.20
2022-09-10T07:26:30.255Z,5.83
2022-09-10T07:28:59.127Z,3.83
2022-09-10T07:31:30.862Z,6.13
2022-09-10T07:33:59.443Z,7.97
2022-09-10T07:36:27.609Z,7.70
2022-09-10T07:38:57.629Z,7.27
2022-09-10T07:41:29.784Z,5.50
2022-09-10T07:44:00.374Z,7.27
2022-09-10T07:46:28.551Z,8.37
2022-09-10T07:48:57.996Z,8.17
2022-09-10T07:51:26.926Z,9.60
2022-09-10T07:53:55.731Z,8.20
2022-09-10T07:56:24.511Z,6.63
2022-09-10T07:58:57.478Z,8.90
2022-09-10T08:01:25.968Z,13.10
2022-09-10T08:03:58.666Z,9.53
2022-09-10T08:06:26.838Z,9.70
2022-09-10T08:08:55.185Z,10.47
2022-09-10T08:11:23.515Z,9.17
2022-09-10T08:13:54.647Z,10.27
2022-09-10T08:16:24.288Z,10.13
2022-09-10T08:18:53.061Z,9.73
2022-09-10T08:21:26.252Z,9.77
2022-09-10T08:23:55.506Z,9.63
2022-09-10T08:26:24.829Z,13.07
2022-09-10T08:28:55.945Z,11.20
2022-09-10T08:31:26.357Z,9.27
2022-09-10T08:33:55.255Z,11.10
2022-09-10T08:36:24.313Z,9.03
2022-09-10T08:38:55.214Z,10.73
2022-09-10T08:41:31.362Z,10.80
2022-09-10T08:44:04.135Z,7.33
2022-09-10T08:46:35.390Z,13.33
2022-09-10T08:49:09.591Z,14.17
2022-09-10T08:51:43.439Z,10.97
2022-09-10T08:54:15.340Z,13.27
2022-09-10T08:56:43.588Z,19.43
2022-09-10T08:59:18.853Z,10.60
2022-09-10T09:01:50.720Z,11.40
2022-09-10T09:04:30.453Z,13.37
2022-09-10T09:07:01.445Z,11.80
2022-09-10T09:09:29.487Z,11.43
2022-09-10T09:12:04.817Z,12.00
2022-09-10T09:14:46.260Z,7.97
2022-09-10T09:17:25.275Z,14.47
2022-09-10T09:19:59.799Z,14.93
2022-09-10T09:22:39.792Z,9.80
2022-09-10T09:25:11.310Z,15.37
2022-09-10T09:27:42.343Z,11.93
2022-09-10T09:30:18.714Z,4.63
2022-09-10T09:32:47.984Z,13.87
2022-09-10T09:35:25.479Z,12.37
2022-09-10T09:38:04.354Z,11.67
2022-09-10T09:40:38.475Z,12.73
2022-09-10T09:43:12.771Z,9.43
2022-09-10T09:45:44.083Z,12.70
2022-09-10T09:48:15.844Z,7.07
2022-09-10T09:50:49.031Z,13.57
2022-09-10T09:53:21.241Z,13.00
2022-09-10T09:55:52.072Z,5.13
2022-09-10T09:58:34.803Z,11.47
2022-09-10T10:01:16.577Z,8.50
2022-09-10T10:03:58.728Z,16.93
2022-09-10T10:06:28.230Z,11.10
2022-09-10T10:08:59.655Z,10.80
2022-09-10T10:11:42.372Z,9.23
2022-09-10T10:14:41.926Z,10.93
2022-09-10T10:17:31.444Z,9.20
2022-09-10T10:20:08.918Z,13.60
2022-09-10T10:22:40.882Z,8.73
2022-09-10T10:25:48.712Z,12.03
2022-09-10T10:28:21.561Z,13.70
2022-09-10T10:30:53.746Z,9.10
2022-09-10T10:33:27.881Z,9.77
2022-09-10T10:36:04.064Z,10.63
2022-09-10T10:38:33.182Z,10.13
2022-09-10T10:41:29.724Z,10.80
2022-09-10T10:44:09.757Z,6.83
2022-09-10T10:46:48.728Z,5.83
2022-09-10T10:49:23.010Z,5.00
2022-09-10T10:51:57.915Z,6.50
2022-09-10T10:54:37.676Z,5.57
2022-09-10T10:57:15.158Z,6.10
2022-09-10T10:59:53.128Z,4.53
2022-09-10T11:02:29.112Z,4.13
2022-09-10T11:05:01.545Z,5.57
2022-09-10T11:07:33.165Z,4.77
2022-09-10T11:10:04.155Z,7.07
2022-09-10T11:12:35.143Z,8.13
2022-09-10T11:15:14.983Z,3.50
2022-09-10T11:17:47.633Z,2.60
2022-09-10T11:20:35.037Z,7.57
2022-09-10T11:23:08.965Z,4.67
2022-09-10T11:25:40.870Z,5.43
2022-09-10T11:28:15.538Z,5.60
2022-09-10T11:30:48.130Z,4.83
2022-09-10T11:33:21.250Z,2.47
2022-09-10T11:35:55.656Z,5.50
2022-09-10T11:38:26.059Z,3.83
2022-09-10T11:41:08.598Z,2.00
2022-09-10T11:43:43.514Z,4.13
2022-09-10T11:46:14.667Z,6.97
2022-09-10T11:48:47.514Z,3.97
2022-09-10T11:51:22.518Z,5.03
2022-09-10T11:53:50.847Z,2.03
2022-09-10T11:56:31.422Z,2.63
2022-09-10T11:59:22.867Z,6.17
2022-09-10T12:02:11.349Z,4.77
2022-09-10T12:04:47.953Z,2.30
2022-09-10T12:07:27.080Z,3.43
2022-09-10T12:10:14.554Z,4.83
2022-09-10T12:13:12.617Z,5.57
2022-09-10T12:15:41.229Z,4.53
2022-09-10T12:18:16.631Z,3.00
2022-09-10T12:20:51.260Z,6.97
2022-09-10T12:23:28.711Z,4.97
2022-09-10T12:26:00.772Z,5.07
2022-09-10T12:29:05.309Z,2.20
2022-09-10T12:32:10.247Z,2.50
2022-09-10T12:34:39.197Z,2.10
2022-09-10T12:37:21.036Z,2.20
2022-09-10T12:39:51.008Z,2.57
2022-09-10T12:42:28.813Z,2.00
2022-09-10T12:44:57.225Z,3.20
2022-09-10T12:47:42.852Z,3.40
2022-09-10T12:50:46.066Z,3.03
2022-09-10T12:53:55.085Z,3.73
2022-09-10T12:56:49.040Z,3.47
2022-09-10T12:59:32.081Z,2.97
2022-09-10T13:02:00.518Z,1.70
2022-09-10T13:04:30.469Z,1.80
2022-09-10T13:07:00.380Z,1.90
2022-09-10T13:09:31.209Z,2.30
2022-09-10T13:12:04.310Z,2.87
2022-09-10T13:14:36.906Z,1.60
2022-09-10T13:17:05.625Z,1.60
2022-09-10T13:19:51.426Z,2.47
2022-09-10T13:22:34.152Z,3.60
2022-09-10T13:25:04.616Z,2.17
2022-09-10T13:27:39.378Z,3.07
2022-09-10T13:30:18.870Z,2.47
2022-09-10T13:32:52.278Z,1.87
2022-09-10T13:35:57.486Z,1.63
2022-09-10T13:38:48.667Z,1.70
2022-09-10T13:41:29.476Z,2.07
2022-09-10T13:44:13.419Z,1.47
2022-09-10T13:46:43.091Z,1.60
2022-09-10T13:49:16.717Z,2.03
2022-09-10T13:51:51.136Z,1.23
2022-09-10T13:54:31.429Z,1.50
2022-09-10T13:57:01.068Z,1.50
2022-09-10T13:59:33.453Z,1.30
2022-09-10T14:02:01.339Z,1.60
2022-09-10T14:04:32.034Z,1.30
2022-09-10T14:07:04.779Z,1.30
2022-09-10T14:09:33.140Z,1.33
2022-09-10T14:12:02.370Z,1.43
2022-09-10T14:14:36.299Z,1.27
2022-09-10T14:17:06.722Z,2.00
2022-09-10T14:19:38.727Z,1.20
2022-09-10T14:22:10.040Z,1.13
2022-09-10T14:24:48.113Z,1.00
2022-09-10T14:27:18.554Z,1.20
2022-09-10T14:29:47.866Z,1.50
2022-09-10T14:32:26.927Z,1.37
2022-09-10T14:34:55.034Z,1.10
2022-09-10T14:37:32.194Z,1.30
2022-09-10T14:40:07.939Z,1.90
2022-09-10T14:42:36.673Z,0.90
2022-09-10T14:45:06.830Z,1.10
2022-09-10T14:47:37.134Z,1.43
2022-09-10T14:50:28.377Z,1.17
2022-09-10T14:52:56.668Z,1.10
2022-09-10T14:55:25.466Z,0.93
2022-09-10T14:57:58.312Z,1.40
2022-09-10T15:00:30.504Z,1.73
2022-09-10T15:02:58.524Z,1.30
2022-09-10T15:05:34.324Z,1.13
2022-09-10T15:08:02.787Z,1.37
2022-09-10T15:10:30.731Z,1.40
2022-09-10T15:12:58.757Z,1.37
2022-09-10T15:15:29.870Z,1.20
2022-09-10T15:17:58.394Z,1.27
2022-09-10T15:20:28.111Z,1.83
2022-09-10T15:22:56.110Z,1.97
2022-09-10T15:25:33.881Z,1.90
2022-09-10T15:28:04.445Z,1.37
2022-09-10T15:30:36.078Z,0.90
2022-09-10T15:33:04.649Z,1.40
2022-09-10T15:35:32.724Z,3.73
2022-09-10T15:38:01.815Z,1.37
2022-09-10T15:40:35.987Z,1.87
2022-09-10T15:43:04.034Z,1.20
2022-09-10T15:45:34.753Z,2.37
2022-09-10T15:48:03.147Z,1.90
2022-09-10T15:50:31.400Z,2.27
2022-09-10T15:52:59.666Z,1.17
2022-09-10T15:55:29.071Z,1.80
2022-09-10T15:57:57.019Z,1.20
2022-09-10T16:00:25.202Z,1.27
2022-09-10T16:02:54.566Z,2.17
2022-09-10T16:05:22.818Z,2.13
2022-09-10T16:07:52.294Z,1.30
2022-09-10T16:10:20.413Z,1.73
2022-09-10T16:12:48.565Z,1.52
2022-09-10T16:15:16.773Z,1.13
2022-09-10T16:17:45.985Z,1.42
2022-09-10T16:20:24.596Z,1.77
2022-09-10T16:22:54.433Z,1.20
2022-09-10T16:25:23.449Z,3.17
2022-09-10T16:27:51.328Z,1.73
2022-09-10T16:30:19.235Z,1.23
2022-09-10T16:32:47.182Z,1.40
2022-09-10T16:35:16.770Z,1.97
2022-09-10T16:37:45.317Z,2.50
2022-09-10T16:40:16.113Z,1.63
2022-09-10T16:42:44.081Z,1.30
2022-09-10T16:45:12.192Z,2.30
2022-09-10T16:47:40.078Z,1.50
2022-09-10T16:50:08.717Z,1.60
2022-09-10T16:52:38.033Z,1.30
2022-09-10T16:55:07.125Z,1.47
2022-09-10T16:57:35.057Z,1.30
2022-09-10T17:00:05.906Z,1.30
2022-09-10T17:02:35.293Z,1.63
2022-09-10T17:05:03.247Z,1.33
2022-09-10T17:07:31.198Z,1.30
2022-09-10T17:10:01.163Z,1.50
2022-09-10T17:12:32.706Z,1.30
2022-09-10T17:15:00.670Z,1.27
2022-09-10T17:17:31.451Z,1.37
2022-09-10T17:19:59.435Z,2.43
2022-09-10T17:22:27.898Z,1.57
2022-09-10T17:24:56.195Z,1.50
2022-09-10T17:27:27.732Z,1.30
2022-09-10T17:30:03.172Z,3.47
2022-09-10T17:32:31.471Z,1.80
2022-09-10T17:34:59.610Z,1.60
2022-09-10T17:37:27.545Z,1.50
2022-09-10T17:39:55.470Z,2.00
2022-09-10T17:42:23.407Z,1.57
2022-09-10T17:44:52.750Z,2.13
2022-09-10T17:47:20.696Z,2.57
2022-09-10T17:49:48.721Z,1.97
2022-09-10T17:52:16.626Z,2.50
2022-09-10T17:54:44.542Z,1.87
2022-09-10T17:57:12.507Z,2.53
2022-09-10T17:59:40.745Z,1.77
2022-09-10T18:02:13.959Z,2.47
2022-09-10T18:04:42.003Z,2.23
2022-09-10T18:07:10.752Z,2.40
2022-09-10T18:09:38.887Z,1.80
2022-09-10T18:12:07.546Z,1.80
2022-09-10T18:14:36.193Z,1.70
2022-09-10T18:17:04.134Z,1.47
2022-09-10T18:19:34.468Z,1.60
2022-09-10T18:24:54.513Z,1.70
2022-09-10T18:27:22.519Z,1.70
2022-09-10T18:29:50.553Z,2.00
2022-09-10T18:32:18.444Z,1.70
2022-09-10T18:34:47.738Z,1.70
2022-09-10T18:37:15.698Z,3.00
2022-09-10T18:39:43.653Z,2.67
2022-09-10T18:42:11.589Z,2.37
2022-09-10T18:44:40.325Z,2.30
2022-09-10T18:47:27.810Z,1.90
2022-09-10T18:50:00.303Z,1.70
2022-09-10T18:52:29.129Z,1.60
2022-09-10T18:54:57.044Z,4.13
2022-09-10T18:57:24.957Z,2.53
2022-09-10T18:59:55.115Z,2.57
2022-09-10T19:02:23.185Z,1.87
2022-09-10T19:05:10.308Z,1.87
2022-09-10T19:07:40.533Z,2.20
2022-09-10T19:10:09.041Z,1.83
2022-09-10T19:12:36.970Z,2.23
2022-09-10T19:15:05.490Z,2.40
2022-09-10T19:17:33.448Z,2.20
2022-09-10T19:20:01.400Z,2.23
2022-09-10T19:22:29.474Z,2.07
2022-09-10T19:24:58.951Z,2.77
2022-09-10T19:27:27.155Z,2.87
2022-09-10T19:29:55.875Z,2.40
2022-09-10T19:32:23.789Z,2.00
2022-09-10T19:34:51.792Z,3.13
2022-09-10T19:37:20.842Z,3.67
2022-09-10T19:39:49.121Z,2.67
2022-09-10T19:42:18.862Z,2.20
2022-09-10T19:44:46.785Z,4.00
2022-09-10T19:47:14.665Z,2.43
2022-09-10T19:49:42.626Z,2.20
2022-09-10T19:52:12.890Z,2.23
2022-09-10T19:54:40.958Z,2.20
2022-09-10T19:57:08.866Z,3.07
2022-09-10T19:59:38.181Z,2.00
2022-09-10T20:02:06.176Z,2.00
2022-09-10T20:04:34.393Z,1.83
2022-09-10T20:07:02.423Z,2.10
2022-09-10T20:09:30.338Z,1.60
2022-09-10T20:11:58.273Z,2.30
2022-09-10T20:14:27.924Z,1.73
2022-09-10T20:16:57.562Z,2.27
2022-09-10T20:19:25.572Z,1.77
2022-09-10T20:21:53.541Z,2.00
2022-09-10T20:24:22.160Z,5.10
2022-09-10T20:26:50.064Z,2.10
2022-09-10T20:29:19.381Z,3.13
2022-09-10T20:31:48.642Z,2.13
2022-09-10T20:34:19.638Z,2.10
2022-09-10T20:36:48.495Z,3.07
2022-09-10T20:39:18.066Z,1.97
2022-09-10T20:41:46.800Z,2.20
2022-09-10T20:44:16.165Z,3.07
2022-09-10T20:46:44.393Z,2.50
2022-09-10T20:49:13.708Z,2.17
2022-09-10T20:51:43.662Z,4.73
2022-09-10T20:54:13.583Z,2.07
2022-09-10T20:56:41.660Z,4.27
2022-09-10T20:59:09.767Z,2.17
2022-09-10T21:01:38.024Z,2.17
2022-09-10T21:04:06.045Z,2.10
2022-09-10T21:06:35.284Z,1.93
2022-09-10T21:09:06.084Z,1.70
2022-09-10T21:11:35.639Z,2.83
2022-09-10T21:14:05.734Z,1.93
2022-09-10T21:16:35.320Z,3.33
2022-09-10T21:19:07.754Z,1.80
2022-09-10T21:21:36.512Z,2.30
2022-09-10T21:24:07.561Z,5.43
2022-09-10T21:26:37.584Z,2.33
2022-09-10T21:29:07.338Z,1.87
2022-09-10T21:31:36.039Z,2.57
2022-09-10T21:34:05.707Z,2.27
2022-09-10T21:36:34.701Z,3.90
2022-09-10T21:39:04.344Z,2.37
2022-09-10T21:41:35.630Z,1.63
2022-09-10T21:44:05.185Z,1.83
2022-09-10T21:46:34.357Z,2.33
2022-09-10T21:49:02.543Z,3.80
2022-09-10T21:51:31.016Z,1.93
2022-09-10T21:53:59.453Z,2.20
2022-09-10T21:56:29.573Z,2.37
2022-09-10T21:59:00.224Z,3.80
2022-09-10T22:01:29.617Z,5.63
2022-09-10T22:03:59.607Z,3.83
2022-09-10T22:06:28.679Z,8.13
2022-09-10T22:08:58.981Z,2.63
2022-09-10T22:11:30.535Z,2.57
2022-09-10T22:14:02.122Z,9.73
2022-09-10T22:16:31.396Z,5.33
2022-09-10T22:19:00.654Z,4.00
2022-09-10T22:21:29.121Z,6.97
2022-09-10T22:23:57.254Z,4.83
2022-09-10T22:26:31.039Z,3.50
2022-09-10T22:29:02.645Z,3.20
2022-09-10T22:31:32.381Z,3.33
2022-09-10T22:34:02.153Z,5.30
2022-09-10T22:36:35.429Z,5.17
2022-09-10T22:39:05.332Z,10.20
2022-09-10T22:41:35.201Z,4.07
2022-09-10T22:44:05.561Z,6.20
2022-09-10T22:46:34.804Z,6.73
2022-09-10T22:49:03.043Z,5.63
2022-09-10T22:51:34.271Z,15.37
2022-09-10T22:54:02.277Z,11.43
2022-09-10T22:56:30.420Z,8.70
2022-09-10T22:58:59.906Z,6.27
2022-09-10T23:01:31.084Z,13.87
2022-09-10T23:04:00.549Z,26.10
2022-09-10T23:06:30.144Z,11.47
2022-09-10T23:09:04.109Z,15.57
2022-09-10T23:11:33.513Z,21.10
2022-09-10T23:14:03.667Z,9.00
2022-09-10T23:16:34.651Z,7.77
2022-09-10T23:19:04.747Z,10.60
2022-09-10T23:21:34.262Z,16.13
2022-09-10T23:24:03.766Z,10.97
2022-09-10T23:26:32.020Z,14.53
2022-09-10T23:29:03.382Z,9.97
2022-09-10T23:31:33.893Z,9.43
2022-09-10T23:34:04.211Z,12.47
2022-09-10T23:36:34.257Z,9.87
2022-09-10T23:39:03.849Z,13.90
2022-09-10T23:41:32.025Z,8.57
2022-09-10T23:44:00.255Z,7.43
2022-09-10T23:46:28.303Z,9.30
2022-09-10T23:49:01.374Z,7.17
2022-09-10T23:51:29.559Z,8.13
2022-09-10T23:53:57.796Z,8.37
2022-09-10T23:56:26.908Z,7.43
2022-09-10T23:58:55.319Z,7.30
